Main page
METAR-TAF:

METAR-TAF

Airports :

Zaragoza Airport

Zaragoza, Spain

latitude: 41-40N, longitude: 001-01W, elevation: 263 m

Current weather observation

The report was made 21 minutes ago, at 09:30 UTC
Wind 3 kt from the South
Temperature 12°C
Humidity 94%
Pressure 1018 hPa
Visibility: 6000 m
Scattered clouds at a height of 800 ft
Broken clouds at a height of 1000 ft

METAR: LEZG 170930Z 19003KT 6000 SCT008 BKN010 12/11 Q1018

Time: 10:51 (09:51 UTC)

Forecast

The report was made 16 minutes ago, at 09:35 UTC
Forecast valid from 17 at 09 UTC to 18 at 06 UTC
Wind 3 kt from variable directions
Visibility: 7000 m
Few clouds at a height of 2000 ft
Temporary
from 17 at 09 UTC to 17 at 11 UTC
Visibility: 2000 m
Broken clouds at a height of 800 ft
mist
Becoming
from 17 at 12 UTC to 17 at 14 UTC
Wind 8 kt from the East/Southeast

TAF: LEZG 170935Z 1709/1806 VRB03KT 7000 FEW020 TX17/1713Z TN12/1806Z TEMPO 1709/1711 2000 BR BKN008 BECMG 1712/1714 11008KT

Weather observations and forecasts of more than 4000 airports (METAR and TAF reports).

The available stations are represented by yellow and red dots on the map.

Hover mouse over dot to see the name of the station.

Then click to see weather observations and forecasts.

To change the map : click on the green buttons with a black cross to zoom in, on the green button with a dash to zoom out, or on the green arrows for adjacent maps.


METAR-TAF: